createdAt,value
2018-06-27T00:01:25.024Z,99165.62
2018-06-27T00:03:52.882Z,99175.09
2018-06-27T00:06:20.725Z,99168.60
2018-06-27T00:08:48.539Z,99173.86
2018-06-27T00:11:16.402Z,99172.61
2018-06-27T00:13:44.262Z,99170.59
2018-06-27T00:16:12.164Z,99163.09
2018-06-27T00:18:40.103Z,99167.63
2018-06-27T00:21:08.003Z,99168.26
2018-06-27T00:23:35.895Z,99167.43
2018-06-27T00:26:03.850Z,99168.66
2018-06-27T00:28:31.725Z,99171.18
2018-06-27T00:30:59.613Z,99173.96
2018-06-27T00:33:27.498Z,99173.27
2018-06-27T00:35:55.425Z,99175.34
2018-06-27T00:38:23.317Z,99177.22
2018-06-27T00:40:51.259Z,99162.05
2018-06-27T00:43:19.150Z,99151.67
2018-06-27T00:45:47.062Z,99151.67
2018-06-27T00:48:14.923Z,99150.45
2018-06-27T00:50:42.772Z,99140.27
2018-06-27T00:53:10.682Z,99143.88
2018-06-27T00:55:38.598Z,99143.98
2018-06-27T00:58:06.709Z,99146.85
2018-06-27T01:00:34.777Z,99138.81
2018-06-27T01:03:02.719Z,99118.13
2018-06-27T01:05:30.633Z,99116.59
2018-06-27T01:07:58.522Z,99121.20
2018-06-27T01:10:26.346Z,99126.75
2018-06-27T01:12:54.234Z,99136.53
2018-06-27T01:15:22.121Z,99140.65
2018-06-27T01:17:56.424Z,99145.52
2018-06-27T01:20:24.563Z,99148.05
2018-06-27T01:22:52.424Z,99151.84
2018-06-27T01:25:20.871Z,99153.08
2018-06-27T01:27:48.998Z,99149.83
2018-06-27T01:30:17.058Z,99152.41
2018-06-27T01:32:44.891Z,99147.85
2018-06-27T01:35:13.213Z,99128.64
2018-06-27T01:37:41.138Z,99129.16
2018-06-27T01:40:09.004Z,99131.00
2018-06-27T01:42:36.927Z,99120.45
2018-06-27T01:45:04.867Z,99110.98
2018-06-27T01:47:32.762Z,99104.09
2018-06-27T01:50:00.693Z,99105.16
2018-06-27T01:52:28.610Z,99102.78
2018-06-27T01:54:56.469Z,99102.33
2018-06-27T01:57:24.336Z,99100.02
2018-06-27T01:59:52.204Z,99096.15
2018-06-27T02:02:20.125Z,99094.73
2018-06-27T02:04:48.063Z,99088.42
2018-06-27T02:07:15.946Z,99095.56
2018-06-27T02:09:43.875Z,99095.09
2018-06-27T02:12:11.695Z,99096.51
2018-06-27T02:14:39.600Z,99100.77
2018-06-27T02:17:07.495Z,99100.13
2018-06-27T02:19:35.403Z,99089.96
2018-06-27T02:22:03.326Z,99093.67
2018-06-27T02:24:31.246Z,99090.80
2018-06-27T02:26:59.157Z,99084.03
2018-06-27T02:29:27.050Z,99075.09
2018-06-27T02:31:55.012Z,99064.28
2018-06-27T02:34:22.895Z,99066.03
2018-06-27T02:36:50.743Z,99063.97
2018-06-27T02:39:18.614Z,99069.31
2018-06-27T02:41:46.517Z,99068.42
2018-06-27T02:44:14.428Z,99067.70
2018-06-27T02:46:42.340Z,99062.27
2018-06-27T02:49:10.214Z,99061.88
2018-06-27T02:51:38.105Z,99053.05
2018-06-27T02:54:06.024Z,99049.39
2018-06-27T02:56:33.934Z,99054.47
2018-06-27T02:59:01.823Z,99049.55
2018-06-27T03:01:29.720Z,99053.52
2018-06-27T03:03:57.636Z,99048.20
2018-06-27T03:06:25.545Z,99052.86
2018-06-27T03:08:53.461Z,99050.39
2018-06-27T03:11:21.357Z,99053.16
2018-06-27T03:13:49.259Z,99044.59
2018-06-27T03:16:17.178Z,99041.16
2018-06-27T03:18:52.184Z,99041.40
2018-06-27T03:21:20.472Z,99038.08
2018-06-27T03:23:48.425Z,99038.80
2018-06-27T03:26:16.299Z,99042.21
2018-06-27T03:28:44.205Z,99031.97
2018-06-27T03:31:12.089Z,99032.41
2018-06-27T03:33:39.977Z,99030.61
2018-06-27T03:36:07.827Z,99027.20
2018-06-27T03:38:35.835Z,99024.05
2018-06-27T03:41:03.781Z,99018.14
2018-06-27T03:43:31.635Z,99020.33
2018-06-27T03:45:59.579Z,99013.13
2018-06-27T03:48:27.467Z,99011.03
2018-06-27T03:50:55.387Z,99010.66
2018-06-27T03:53:23.278Z,99007.94
2018-06-27T03:55:51.207Z,99007.27
2018-06-27T03:58:19.138Z,99011.62
2018-06-27T04:00:46.993Z,98995.78
2018-06-27T04:03:14.827Z,98989.61
2018-06-27T04:05:42.679Z,98991.89
2018-06-27T04:08:10.544Z,98988.30
2018-06-27T04:10:38.422Z,98987.81
2018-06-27T04:13:06.481Z,98985.55
2018-06-27T04:15:36.695Z,98977.31
2018-06-27T04:18:04.863Z,98981.69
2018-06-27T04:20:32.708Z,98973.41
2018-06-27T04:23:00.673Z,98971.92
2018-06-27T04:25:28.611Z,98975.91
2018-06-27T04:27:56.497Z,98969.59
2018-06-27T04:30:24.360Z,98967.13
2018-06-27T04:32:52.232Z,98961.86
2018-06-27T04:35:20.178Z,98972.05
2018-06-27T04:37:48.044Z,98983.02
2018-06-27T04:40:15.980Z,99002.70
2018-06-27T04:42:43.866Z,99003.75
2018-06-27T04:45:11.774Z,98998.31
2018-06-27T04:47:39.703Z,98975.39
2018-06-27T04:50:07.635Z,98965.06
2018-06-27T04:52:35.558Z,98971.76
2018-06-27T04:55:03.507Z,98971.37
2018-06-27T04:57:31.342Z,98980.39
2018-06-27T04:59:59.415Z,98985.36
2018-06-27T05:02:27.278Z,98997.25
2018-06-27T05:04:55.143Z,98991.06
2018-06-27T05:07:23.028Z,98987.52
2018-06-27T05:09:50.923Z,98964.81
2018-06-27T05:12:18.819Z,98962.86
2018-06-27T05:14:46.713Z,98972.86
2018-06-27T05:17:14.564Z,98969.27
2018-06-27T05:19:43.798Z,98958.76
2018-06-27T05:22:12.349Z,98954.78
2018-06-27T05:24:40.227Z,98964.63
2018-06-27T05:27:08.107Z,98970.69
2018-06-27T05:29:35.996Z,98962.11
2018-06-27T05:32:03.980Z,98957.24
2018-06-27T05:34:31.982Z,98962.80
2018-06-27T05:36:59.820Z,98967.02
2018-06-27T05:39:27.709Z,98976.12
2018-06-27T05:41:55.583Z,98980.30
2018-06-27T05:44:23.514Z,98979.42
2018-06-27T05:46:51.377Z,98965.98
2018-06-27T05:49:19.231Z,98966.77
2018-06-27T05:51:47.094Z,98963.44
2018-06-27T05:54:14.942Z,98969.94
2018-06-27T05:56:42.819Z,98980.22
2018-06-27T05:59:10.662Z,98983.34
2018-06-27T06:01:38.531Z,98980.83
2018-06-27T06:04:06.398Z,98978.25
2018-06-27T06:06:34.336Z,98979.61
2018-06-27T06:09:02.315Z,98972.21
2018-06-27T06:11:30.210Z,98968.64
2018-06-27T06:13:58.122Z,98956.91
2018-06-27T06:16:25.997Z,98952.42
2018-06-27T06:18:53.928Z,98947.86
2018-06-27T06:21:21.783Z,98938.27
2018-06-27T06:23:49.684Z,98938.50
2018-06-27T06:26:17.561Z,98931.70
2018-06-27T06:28:45.427Z,98942.41
2018-06-27T06:31:13.288Z,98952.41
2018-06-27T06:33:41.121Z,98942.69
2018-06-27T06:36:08.965Z,98950.81
2018-06-27T06:38:36.834Z,98951.94
2018-06-27T06:41:05.185Z,98953.97
2018-06-27T06:43:33.055Z,98946.27
2018-06-27T06:46:00.919Z,98938.08
2018-06-27T06:48:29.814Z,98936.67
2018-06-27T06:50:57.746Z,98918.97
2018-06-27T06:53:25.635Z,98918.44
2018-06-27T06:55:53.611Z,98911.58
2018-06-27T06:58:21.492Z,98896.48
2018-06-27T07:00:49.367Z,98904.36
2018-06-27T07:03:17.268Z,98894.09
2018-06-27T07:05:45.204Z,98891.56
2018-06-27T07:08:13.034Z,98885.88
2018-06-27T07:10:40.904Z,98894.04
2018-06-27T07:13:08.800Z,98895.17
2018-06-27T07:15:36.688Z,98888.35
2018-06-27T07:18:04.969Z,98858.81
2018-06-27T07:20:33.194Z,98855.77
2018-06-27T07:23:01.047Z,98851.43
2018-06-27T07:25:28.935Z,98865.66
2018-06-27T07:27:56.864Z,98869.50
2018-06-27T07:30:24.745Z,98884.53
2018-06-27T07:32:53.061Z,98901.48
2018-06-27T07:35:20.913Z,98897.59
2018-06-27T07:37:48.853Z,98896.46
2018-06-27T07:40:16.758Z,98912.88
2018-06-27T07:42:44.681Z,98917.44
2018-06-27T07:45:12.628Z,98911.83
2018-06-27T07:47:40.475Z,98920.03
2018-06-27T07:50:08.428Z,98910.22
2018-06-27T07:52:36.304Z,98908.16
2018-06-27T07:55:04.364Z,98910.55
2018-06-27T07:57:32.246Z,98905.97
2018-06-27T08:00:00.141Z,98901.25
2018-06-27T08:02:28.060Z,98887.32
2018-06-27T08:04:55.960Z,98879.32
2018-06-27T08:07:23.887Z,98879.87
2018-06-27T08:09:51.784Z,98888.39
2018-06-27T08:12:19.732Z,98878.48
2018-06-27T08:14:47.541Z,98868.70
2018-06-27T08:17:15.730Z,98872.30
2018-06-27T08:19:43.655Z,98873.44
2018-06-27T08:22:11.548Z,98872.95
2018-06-27T08:24:39.415Z,98860.48
2018-06-27T08:27:07.364Z,98859.98
2018-06-27T08:29:35.402Z,98869.85
2018-06-27T08:32:03.462Z,98881.84
2018-06-27T08:34:31.372Z,98890.80
2018-06-27T08:39:32.648Z,98894.45
2018-06-27T08:42:00.518Z,98900.61
2018-06-27T08:44:28.572Z,98903.63
2018-06-27T08:46:56.361Z,98896.95
2018-06-27T08:49:24.274Z,98905.36
2018-06-27T08:51:52.131Z,98907.05
2018-06-27T08:54:20.011Z,98913.95
2018-06-27T08:56:47.989Z,98906.36
2018-06-27T08:59:15.880Z,98913.17
2018-06-27T09:01:43.774Z,98905.42
2018-06-27T09:04:11.744Z,98903.33
2018-06-27T09:06:39.652Z,98903.03
2018-06-27T09:09:09.873Z,98905.19
2018-06-27T09:18:27.843Z,98901.06
2018-06-27T09:20:55.794Z,98923.69
2018-06-27T09:23:23.700Z,98922.38
2018-06-27T09:25:51.559Z,98935.78
2018-06-27T09:28:19.472Z,98939.42
2018-06-27T09:30:47.419Z,98939.03
2018-06-27T09:33:15.265Z,98930.22
2018-06-27T09:35:43.173Z,98923.55
2018-06-27T09:38:11.039Z,98925.82
2018-06-27T09:40:38.904Z,98928.88
2018-06-27T09:43:06.850Z,98925.26
2018-06-27T09:45:34.748Z,98922.19
2018-06-27T09:48:02.665Z,98920.86
2018-06-27T09:50:30.629Z,98920.28
2018-06-27T09:52:58.480Z,98917.09
2018-06-27T09:55:26.362Z,98923.64
2018-06-27T09:57:54.377Z,98923.70
2018-06-27T10:00:27.698Z,98917.13
2018-06-27T10:02:55.620Z,98924.19
2018-06-27T10:05:23.588Z,98919.98
2018-06-27T10:07:51.474Z,98922.53
2018-06-27T10:10:19.354Z,98905.70
2018-06-27T10:12:47.251Z,98901.80
2018-06-27T10:15:15.152Z,98892.85
2018-06-27T10:17:43.019Z,98887.41
2018-06-27T10:20:10.891Z,98889.91
2018-06-27T10:22:38.780Z,98884.35
2018-06-27T10:25:06.760Z,98885.22
2018-06-27T10:27:34.582Z,98878.02
2018-06-27T10:30:02.644Z,98870.14
2018-06-27T10:32:30.538Z,98865.07
2018-06-27T10:34:58.391Z,98860.67
2018-06-27T10:37:26.262Z,98857.02
2018-06-27T10:39:54.151Z,98857.59
2018-06-27T10:42:22.022Z,98854.70
2018-06-27T10:44:49.911Z,98851.20
2018-06-27T10:47:17.811Z,98854.14
2018-06-27T10:49:45.688Z,98838.02
2018-06-27T10:52:13.553Z,98835.73
2018-06-27T10:54:56.921Z,98835.45
2018-06-27T10:57:24.861Z,98839.24
2018-06-27T10:59:53.415Z,98839.61
2018-06-27T11:02:21.892Z,98840.44
2018-06-27T11:04:49.750Z,98832.98
2018-06-27T11:07:17.721Z,98845.08
2018-06-27T11:09:45.620Z,98847.02
2018-06-27T11:12:13.515Z,98846.02
2018-06-27T11:14:41.372Z,98846.95
2018-06-27T11:17:09.247Z,98848.61
2018-06-27T11:19:37.359Z,98847.02
2018-06-27T11:22:05.274Z,98838.43
2018-06-27T11:24:33.934Z,98836.56
2018-06-27T11:27:01.843Z,98838.30
2018-06-27T11:29:29.720Z,98841.76
2018-06-27T11:31:57.602Z,98847.67
2018-06-27T11:34:25.471Z,98853.17
2018-06-27T11:36:53.362Z,98850.42
2018-06-27T11:39:21.287Z,98846.18
2018-06-27T11:41:49.232Z,98840.17
2018-06-27T11:44:17.151Z,98836.05
2018-06-27T11:46:45.009Z,98828.97
2018-06-27T11:49:12.912Z,98831.50
2018-06-27T11:51:40.824Z,98832.39
2018-06-27T11:54:08.765Z,98829.55
2018-06-27T11:56:36.615Z,98825.50
2018-06-27T11:59:04.575Z,98819.48
2018-06-27T12:01:32.469Z,98810.99
2018-06-27T12:04:00.394Z,98814.59
2018-06-27T12:06:28.351Z,98810.91
2018-06-27T12:08:56.221Z,98810.93
2018-06-27T12:11:24.130Z,98806.34
2018-06-27T12:13:52.013Z,98812.09
2018-06-27T12:16:20.202Z,98810.09
2018-06-27T12:18:48.403Z,98802.89
2018-06-27T12:21:16.334Z,98809.73
2018-06-27T12:23:44.235Z,98805.81
2018-06-27T12:26:12.197Z,98806.51
2018-06-27T12:28:40.050Z,98794.75
2018-06-27T12:31:07.981Z,98789.87
2018-06-27T12:33:35.991Z,98790.97
2018-06-27T12:36:03.961Z,98796.70
2018-06-27T12:38:31.874Z,98790.31
2018-06-27T12:40:59.821Z,98783.38
2018-06-27T12:43:27.726Z,98783.27
2018-06-27T12:45:55.734Z,98782.36
2018-06-27T12:48:23.622Z,98779.70
2018-06-27T12:50:51.568Z,98780.24
2018-06-27T12:53:19.432Z,98785.84
2018-06-27T12:55:47.323Z,98779.09
2018-06-27T12:58:15.214Z,98774.28
2018-06-27T13:00:43.174Z,98766.34
2018-06-27T13:03:11.019Z,98774.60
2018-06-27T13:05:39.017Z,98776.34
2018-06-27T13:08:06.910Z,98773.55
2018-06-27T13:10:34.918Z,98773.00
2018-06-27T13:13:03.345Z,98772.11
2018-06-27T13:15:31.274Z,98771.45
2018-06-27T13:17:59.315Z,98769.50
2018-06-27T13:20:27.323Z,98780.36
2018-06-27T13:22:55.335Z,98777.92
2018-06-27T13:25:23.196Z,98776.78
2018-06-27T13:27:51.008Z,98768.06
2018-06-27T13:30:18.834Z,98753.27
2018-06-27T13:32:46.917Z,98750.36
2018-06-27T13:35:14.820Z,98751.03
2018-06-27T13:37:42.737Z,98747.84
2018-06-27T13:40:10.762Z,98746.06
2018-06-27T13:42:38.603Z,98739.47
2018-06-27T13:45:06.467Z,98735.14
2018-06-27T13:47:34.387Z,98731.27
2018-06-27T13:50:02.276Z,98730.59
2018-06-27T13:52:30.219Z,98730.00
2018-06-27T13:54:58.977Z,98732.07
2018-06-27T13:57:28.021Z,98724.68
2018-06-27T13:59:56.966Z,98718.20
2018-06-27T14:02:24.882Z,98716.23
2018-06-27T14:04:52.737Z,98729.10
2018-06-27T14:07:20.740Z,98726.41
2018-06-27T14:09:48.629Z,98722.09
2018-06-27T14:12:16.523Z,98713.84
2018-06-27T14:14:44.411Z,98717.93
2018-06-27T14:17:12.268Z,98709.92
2018-06-27T14:19:40.127Z,98712.23
2018-06-27T14:22:08.739Z,98709.66
2018-06-27T14:24:37.363Z,98702.14
2018-06-27T14:27:05.288Z,98706.97
2018-06-27T14:29:33.162Z,98708.85
2018-06-27T14:32:01.023Z,98715.70
2018-06-27T14:34:28.866Z,98725.55
2018-06-27T14:36:56.722Z,98711.28
2018-06-27T14:39:24.582Z,98707.06
2018-06-27T14:41:52.466Z,98709.78
2018-06-27T14:44:20.375Z,98707.02
2018-06-27T14:46:48.261Z,98698.05
2018-06-27T14:49:16.168Z,98700.75
2018-06-27T14:51:44.072Z,98701.33
2018-06-27T14:54:11.983Z,98701.53
2018-06-27T14:56:39.898Z,98698.14
2018-06-27T14:59:07.840Z,98692.23
2018-06-27T15:01:36.159Z,98686.64
2018-06-27T15:04:04.101Z,98690.02
2018-06-27T15:06:32.128Z,98686.85
2018-06-27T15:09:00.039Z,98692.33
2018-06-27T15:11:28.430Z,98691.74
2018-06-27T15:13:56.536Z,98691.23
2018-06-27T15:16:24.595Z,98692.20
2018-06-27T15:18:53.026Z,98693.86
2018-06-27T15:23:07.609Z,98688.53
2018-06-27T15:25:35.487Z,98694.09
2018-06-27T15:28:03.385Z,98696.24
2018-06-27T15:30:31.642Z,98702.61
2018-06-27T15:32:59.621Z,98703.52
2018-06-27T15:35:27.594Z,98704.76
2018-06-27T15:37:55.442Z,98706.98
2018-06-27T15:40:23.326Z,98703.72
2018-06-27T15:42:51.206Z,98698.26
2018-06-27T15:45:19.083Z,98702.35
2018-06-27T15:47:47.023Z,98689.78
2018-06-27T15:50:14.905Z,98685.69
2018-06-27T15:52:42.782Z,98675.55
2018-06-27T15:55:10.668Z,98674.73
2018-06-27T15:57:38.616Z,98684.55
2018-06-27T16:00:06.604Z,98691.37
2018-06-27T16:02:34.566Z,98706.41
2018-06-27T16:05:02.606Z,98710.52
2018-06-27T16:07:30.633Z,98719.02
2018-06-27T16:09:58.735Z,98719.00
2018-06-27T16:12:26.884Z,98726.14
2018-06-27T16:14:54.891Z,98728.06
2018-06-27T16:17:23.095Z,98731.62
2018-06-27T16:19:50.904Z,98737.90
2018-06-27T16:22:18.818Z,98734.61
2018-06-27T16:24:46.822Z,98738.72
2018-06-27T16:27:14.892Z,98738.72
2018-06-27T16:29:43.327Z,98743.36
2018-06-27T16:32:11.254Z,98737.36
2018-06-27T16:34:39.340Z,98738.98
2018-06-27T16:37:07.397Z,98737.61
2018-06-27T16:39:35.393Z,98736.55
2018-06-27T16:42:03.366Z,98734.63
2018-06-27T16:44:31.404Z,98723.42
2018-06-27T16:46:59.407Z,98721.50
2018-06-27T16:49:27.295Z,98725.86
2018-06-27T16:51:55.343Z,98729.70
2018-06-27T16:54:23.433Z,98725.86
2018-06-27T16:56:51.343Z,98718.47
2018-06-27T16:59:19.314Z,98727.52
2018-06-27T17:01:47.319Z,98735.70
2018-06-27T17:04:15.480Z,98726.41
2018-06-27T17:06:43.446Z,98726.42
2018-06-27T17:09:11.308Z,98732.94
2018-06-27T17:11:39.739Z,98741.16
2018-06-27T17:14:08.434Z,98743.64
2018-06-27T17:16:36.435Z,98748.02
2018-06-27T17:19:04.553Z,98751.23
2018-06-27T17:21:32.663Z,98757.25
2018-06-27T17:24:00.688Z,98757.24
2018-06-27T17:26:28.691Z,98759.13
2018-06-27T17:28:56.709Z,98748.20
2018-06-27T17:31:24.816Z,98746.85
2018-06-27T17:33:53.023Z,98753.13
2018-06-27T17:36:22.691Z,98741.09
2018-06-27T17:38:50.813Z,98752.02
2018-06-27T17:41:18.974Z,98738.31
2018-06-27T17:43:47.104Z,98737.24
2018-06-27T17:46:15.196Z,98735.87
2018-06-27T17:48:43.818Z,98726.05
2018-06-27T17:51:11.951Z,98718.64
2018-06-27T17:53:40.878Z,98718.11
2018-06-27T17:56:08.881Z,98717.55
2018-06-27T17:58:36.943Z,98716.76
2018-06-27T18:01:04.902Z,98713.78
2018-06-27T18:03:32.969Z,98708.55
2018-06-27T18:06:01.031Z,98707.73
2018-06-27T18:08:29.328Z,98710.41
2018-06-27T18:10:57.295Z,98715.02
2018-06-27T18:13:25.291Z,98721.02
2018-06-27T18:15:53.367Z,98720.20
2018-06-27T18:18:21.381Z,98719.40
2018-06-27T18:20:49.339Z,98718.05
2018-06-27T18:23:17.355Z,98719.20
2018-06-27T18:25:45.321Z,98714.52
2018-06-27T18:28:13.383Z,98713.97
2018-06-27T18:30:41.339Z,98713.94
2018-06-27T18:33:09.398Z,98724.62
2018-06-27T18:35:37.449Z,98736.11
2018-06-27T18:38:05.647Z,98753.08
2018-06-27T18:40:33.590Z,98751.45
2018-06-27T18:43:01.560Z,98748.73
2018-06-27T18:45:29.529Z,98755.87
2018-06-27T18:47:57.586Z,98755.61
2018-06-27T18:50:25.562Z,98755.87
2018-06-27T18:52:53.618Z,98757.52
2018-06-27T18:55:21.656Z,98755.86
2018-06-27T18:57:49.711Z,98763.78
2018-06-27T19:00:17.739Z,98752.87
2018-06-27T19:02:45.882Z,98747.11
2018-06-27T19:05:13.818Z,98743.03
2018-06-27T19:07:41.833Z,98738.56
2018-06-27T19:10:09.853Z,98733.66
2018-06-27T19:12:38.201Z,98746.52
2018-06-27T19:15:06.322Z,98739.19
2018-06-27T19:17:34.309Z,98744.41
2018-06-27T19:20:02.285Z,98746.86
2018-06-27T19:22:30.329Z,98752.39
2018-06-27T19:24:58.355Z,98758.39
2018-06-27T19:27:26.253Z,98759.22
2018-06-27T19:29:54.193Z,98754.30
2018-06-27T19:32:22.200Z,98758.41
2018-06-27T19:34:50.188Z,98766.08
2018-06-27T19:37:18.162Z,98758.40
2018-06-27T19:39:46.140Z,98757.88
2018-06-27T19:42:14.187Z,98754.86
2018-06-27T19:44:42.114Z,98751.02
2018-06-27T19:47:10.110Z,98746.94
2018-06-27T19:49:38.098Z,98742.55
2018-06-27T19:52:06.067Z,98746.94
2018-06-27T19:54:34.161Z,98756.77
2018-06-27T19:57:02.114Z,98757.05
2018-06-27T19:59:30.011Z,98759.77
2018-06-27T20:01:58.024Z,98767.70
2018-06-27T20:04:26.043Z,98777.28
2018-06-27T20:06:54.047Z,98781.66
2018-06-27T20:09:21.874Z,98785.48
2018-06-27T20:11:49.834Z,98779.73
2018-06-27T20:14:17.756Z,98774.00
2018-06-27T20:16:45.743Z,98766.91
2018-06-27T20:19:13.839Z,98763.61
2018-06-27T20:21:42.545Z,98752.38
2018-06-27T20:24:10.540Z,98746.64
2018-06-27T20:26:38.553Z,98740.38
2018-06-27T20:29:06.871Z,98749.39
2018-06-27T20:31:34.869Z,98752.11
2018-06-27T20:34:02.949Z,98752.68
2018-06-27T20:36:30.918Z,98750.47
2018-06-27T20:38:58.846Z,98739.55
2018-06-27T20:41:27.014Z,98731.89
2018-06-27T20:43:54.934Z,98724.50
2018-06-27T20:46:22.854Z,98719.58
2018-06-27T20:48:50.807Z,98710.55
2018-06-27T20:51:18.852Z,98720.39
2018-06-27T20:53:46.903Z,98713.81
2018-06-27T20:56:14.894Z,98707.81
2018-06-27T20:58:42.820Z,98700.69
2018-06-27T21:01:10.975Z,98696.04
2018-06-27T21:03:38.918Z,98704.27
2018-06-27T21:06:06.879Z,98716.30
2018-06-27T21:08:34.836Z,98720.40
2018-06-27T21:11:02.934Z,98720.41
2018-06-27T21:13:30.803Z,98720.13
2018-06-27T21:15:58.786Z,98719.84
2018-06-27T21:18:26.782Z,98719.03
2018-06-27T21:20:54.793Z,98726.69
2018-06-27T21:23:22.767Z,98717.95
2018-06-27T21:25:50.814Z,98717.12
2018-06-27T21:28:18.735Z,98716.58
2018-06-27T21:30:46.797Z,98713.02
2018-06-27T21:33:14.699Z,98708.36
2018-06-27T21:35:42.613Z,98711.33
2018-06-27T21:38:10.496Z,98709.16
2018-06-27T21:40:38.413Z,98708.88
2018-06-27T21:43:06.313Z,98701.49
2018-06-27T21:45:34.154Z,98706.16
2018-06-27T21:48:02.053Z,98696.30
2018-06-27T21:50:29.928Z,98700.95
2018-06-27T21:52:57.788Z,98700.98
2018-06-27T21:55:25.631Z,98705.91
2018-06-27T21:57:53.476Z,98715.22
2018-06-27T22:00:23.403Z,98710.84
2018-06-27T22:02:51.607Z,98706.45
2018-06-27T22:05:19.557Z,98700.70
2018-06-27T22:07:47.576Z,98711.37
2018-06-27T22:10:15.508Z,98714.64
2018-06-27T22:12:43.493Z,98718.47
2018-06-27T22:15:11.479Z,98709.44
2018-06-27T22:17:39.462Z,98704.55
2018-06-27T22:20:07.464Z,98698.27
2018-06-27T22:22:35.408Z,98704.50
2018-06-27T22:25:03.442Z,98703.45
2018-06-27T22:27:31.395Z,98717.39
2018-06-27T22:29:59.300Z,98717.39
2018-06-27T22:32:27.258Z,98720.95
2018-06-27T22:34:55.179Z,98725.88
2018-06-27T22:37:23.070Z,98732.42
2018-06-27T22:39:51.026Z,98726.98
2018-06-27T22:42:19.034Z,98722.33
2018-06-27T22:44:46.955Z,98709.99
2018-06-27T22:47:14.900Z,98705.64
2018-06-27T22:49:42.818Z,98700.16
2018-06-27T22:52:10.724Z,98694.44
2018-06-27T22:54:38.666Z,98676.09
2018-06-27T22:57:06.604Z,98671.17
2018-06-27T22:59:34.595Z,98657.50
2018-06-27T23:02:02.532Z,98658.87
2018-06-27T23:04:30.554Z,98655.91
2018-06-27T23:06:58.482Z,98659.42
2018-06-27T23:09:26.659Z,98660.81
2018-06-27T23:11:54.675Z,98666.25
2018-06-27T23:14:22.709Z,98655.88
2018-06-27T23:16:50.686Z,98649.03
2018-06-27T23:19:18.823Z,98645.47
2018-06-27T23:21:46.759Z,98646.01
2018-06-27T23:24:14.972Z,98641.88
2018-06-27T23:26:49.424Z,98637.52
2018-06-27T23:29:17.494Z,98632.83
2018-06-27T23:31:45.854Z,98624.58
2018-06-27T23:34:13.885Z,98623.20
2018-06-27T23:36:42.168Z,98615.25
2018-06-27T23:39:11.907Z,98609.00
2018-06-27T23:41:40.411Z,98609.09
2018-06-27T23:44:08.425Z,98601.17
2018-06-27T23:46:36.448Z,98603.62
2018-06-27T23:49:04.720Z,98604.98
2018-06-27T23:51:32.758Z,98610.17
2018-06-27T23:54:00.765Z,98603.57
2018-06-27T23:56:28.728Z,98606.84
2018-06-27T23:58:56.785Z,98611.98
